sensor_id;sensor_type;location;lat;lon;timestamp;pressure;altitude;pressure_sealevel;temperature;humidity
11621;BME280;5866;49.094;11.900;2023-03-03T00:01:25;96262.13;;;2.77;100.00
11621;BME280;5866;49.094;11.900;2023-03-03T00:03:53;96261.81;;;3.04;100.00
11621;BME280;5866;49.094;11.900;2023-03-03T00:06:20;96266.63;;;3.10;100.00
11621;BME280;5866;49.094;11.900;2023-03-03T00:08:49;96269.75;;;3.26;100.00
11621;BME280;5866;49.094;11.900;2023-03-03T00:11:17;96266.03;;;2.83;100.00
11621;BME280;5866;49.094;11.900;2023-03-03T00:13:49;96272.09;;;2.72;100.00
11621;BME280;5866;49.094;11.900;2023-03-03T00:16:22;96274.16;;;2.80;100.00
11621;BME280;5866;49.094;11.900;2023-03-03T00:18:51;96277.84;;;2.54;100.00
11621;BME280;5866;49.094;11.900;2023-03-03T00:21:23;96276.81;;;2.32;100.00
11621;BME280;5866;49.094;11.900;2023-03-03T00:23:56;96276.34;;;2.38;100.00
11621;BME280;5866;49.094;11.900;2023-03-03T00:26:30;96280.00;;;2.83;100.00
11621;BME280;5866;49.094;11.900;2023-03-03T00:29:22;96276.56;;;2.94;100.00
11621;BME280;5866;49.094;11.900;2023-03-03T00:31:50;96278.84;;;2.64;100.00
11621;BME280;5866;49.094;11.900;2023-03-03T00:34:23;96273.44;;;2.78;100.00
11621;BME280;5866;49.094;11.900;2023-03-03T00:36:53;96282.06;;;2.43;100.00
11621;BME280;5866;49.094;11.900;2023-03-03T00:39:26;96285.47;;;2.33;100.00
11621;BME280;5866;49.094;11.900;2023-03-03T00:41:56;96286.72;;;2.40;100.00
11621;BME280;5866;49.094;11.900;2023-03-03T00:44:38;96279.78;;;2.63;100.00
11621;BME280;5866;49.094;11.900;2023-03-03T00:47:24;96270.50;;;2.59;100.00
11621;BME280;5866;49.094;11.900;2023-03-03T00:50:25;96272.03;;;2.85;99.31
11621;BME280;5866;49.094;11.900;2023-03-03T00:53:00;96259.81;;;2.62;100.00
11621;BME280;5866;49.094;11.900;2023-03-03T00:55:29;96265.31;;;2.70;100.00
11621;BME280;5866;49.094;11.900;2023-03-03T00:57:57;96278.25;;;2.36;100.00
11621;BME280;5866;49.094;11.900;2023-03-03T01:00:26;96272.19;;;2.36;100.00
11621;BME280;5866;49.094;11.900;2023-03-03T01:02:54;96275.34;;;2.52;100.00
11621;BME280;5866;49.094;11.900;2023-03-03T01:05:22;96267.53;;;2.63;99.19
11621;BME280;5866;49.094;11.900;2023-03-03T01:07:49;96277.09;;;2.40;100.00
11621;BME280;5866;49.094;11.900;2023-03-03T01:10:17;96266.63;;;2.40;100.00
11621;BME280;5866;49.094;11.900;2023-03-03T01:12:44;96268.91;;;2.45;100.00
11621;BME280;5866;49.094;11.900;2023-03-03T01:15:13;96274.13;;;2.21;100.00
11621;BME280;5866;49.094;11.900;2023-03-03T01:17:42;96280.66;;;2.03;100.00
11621;BME280;5866;49.094;11.900;2023-03-03T01:20:12;96269.47;;;2.01;100.00
11621;BME280;5866;49.094;11.900;2023-03-03T01:22:40;96271.09;;;2.15;100.00
11621;BME280;5866;49.094;11.900;2023-03-03T01:25:08;96270.53;;;1.99;100.00
11621;BME280;5866;49.094;11.900;2023-03-03T01:27:36;96273.25;;;1.97;100.00
11621;BME280;5866;49.094;11.900;2023-03-03T01:30:04;96275.81;;;1.86;100.00
11621;BME280;5866;49.094;11.900;2023-03-03T01:32:32;96273.97;;;1.99;100.00
11621;BME280;5866;49.094;11.900;2023-03-03T01:35:01;96271.50;;;2.21;100.00
11621;BME280;5866;49.094;11.900;2023-03-03T01:37:28;96271.06;;;2.51;99.50
11621;BME280;5866;49.094;11.900;2023-03-03T01:39:56;96269.59;;;2.23;99.67
11621;BME280;5866;49.094;11.900;2023-03-03T01:42:23;96264.19;;;2.37;98.00
11621;BME280;5866;49.094;11.900;2023-03-03T01:45:20;96257.28;;;2.95;94.52
11621;BME280;5866;49.094;11.900;2023-03-03T01:47:51;96259.28;;;2.33;94.02
11621;BME280;5866;49.094;11.900;2023-03-03T01:50:29;96261.88;;;2.22;95.67
11621;BME280;5866;49.094;11.900;2023-03-03T01:52:59;96269.81;;;2.20;98.22
11621;BME280;5866;49.094;11.900;2023-03-03T01:55:32;96270.91;;;2.05;99.21
11621;BME280;5866;49.094;11.900;2023-03-03T01:58:04;96265.53;;;2.43;96.47
11621;BME280;5866;49.094;11.900;2023-03-03T02:00:36;96269.94;;;2.42;95.82
11621;BME280;5866;49.094;11.900;2023-03-03T02:03:04;96267.81;;;2.48;92.87
11621;BME280;5866;49.094;11.900;2023-03-03T02:05:34;96255.88;;;2.32;93.97
11621;BME280;5866;49.094;11.900;2023-03-03T02:08:02;96260.09;;;2.46;93.22
11621;BME280;5866;49.094;11.900;2023-03-03T02:10:30;96265.13;;;2.84;90.31
11621;BME280;5866;49.094;11.900;2023-03-03T02:12:58;96251.16;;;2.72;88.25
11621;BME280;5866;49.094;11.900;2023-03-03T02:15:28;96261.25;;;2.42;91.77
11621;BME280;5866;49.094;11.900;2023-03-03T02:17:59;96253.88;;;2.71;90.46
11621;BME280;5866;49.094;11.900;2023-03-03T02:20:38;96252.84;;;3.41;83.90
11621;BME280;5866;49.094;11.900;2023-03-03T02:23:15;96271.84;;;2.40;88.38
11621;BME280;5866;49.094;11.900;2023-03-03T02:25:48;96263.88;;;3.11;85.54
11621;BME280;5866;49.094;11.900;2023-03-03T02:28:21;96258.50;;;2.32;88.92
11621;BME280;5866;49.094;11.900;2023-03-03T02:30:53;96269.16;;;2.53;90.69
11621;BME280;5866;49.094;11.900;2023-03-03T02:33:20;96260.53;;;2.75;86.74
11621;BME280;5866;49.094;11.900;2023-03-03T02:35:48;96266.34;;;2.91;85.79
11621;BME280;5866;49.094;11.900;2023-03-03T02:38:20;96259.81;;;2.73;87.08
11621;BME280;5866;49.094;11.900;2023-03-03T02:40:58;96267.22;;;2.44;88.36
11621;BME280;5866;49.094;11.900;2023-03-03T02:43:31;96262.38;;;2.51;89.54
11621;BME280;5866;49.094;11.900;2023-03-03T02:46:00;96279.00;;;2.02;92.89
11621;BME280;5866;49.094;11.900;2023-03-03T02:48:27;96269.16;;;2.29;91.57
11621;BME280;5866;49.094;11.900;2023-03-03T02:50:55;96264.28;;;2.49;89.08
11621;BME280;5866;49.094;11.900;2023-03-03T02:53:22;96264.81;;;2.17;89.65
11621;BME280;5866;49.094;11.900;2023-03-03T02:55:50;96266.75;;;2.26;91.96
11621;BME280;5866;49.094;11.900;2023-03-03T02:58:17;96267.88;;;2.59;88.44
11621;BME280;5866;49.094;11.900;2023-03-03T03:00:46;96260.09;;;2.81;85.83
11621;BME280;5866;49.094;11.900;2023-03-03T03:03:14;96267.81;;;2.48;86.52
11621;BME280;5866;49.094;11.900;2023-03-03T03:05:41;96267.19;;;2.20;89.62
11621;BME280;5866;49.094;11.900;2023-03-03T03:08:09;96268.16;;;2.19;89.83
11621;BME280;5866;49.094;11.900;2023-03-03T03:10:36;96261.25;;;2.66;87.13
11621;BME280;5866;49.094;11.900;2023-03-03T03:13:04;96263.72;;;2.32;89.91
11621;BME280;5866;49.094;11.900;2023-03-03T03:15:31;96266.75;;;2.50;86.06
11621;BME280;5866;49.094;11.900;2023-03-03T03:18:00;96261.31;;;2.53;86.21
11621;BME280;5866;49.094;11.900;2023-03-03T03:20:28;96267.47;;;2.28;86.64
11621;BME280;5866;49.094;11.900;2023-03-03T03:22:55;96272.38;;;2.09;89.58
11621;BME280;5866;49.094;11.900;2023-03-03T03:25:23;96267.03;;;1.62;92.60
11621;BME280;5866;49.094;11.900;2023-03-03T03:27:50;96268.16;;;1.83;92.81
11621;BME280;5866;49.094;11.900;2023-03-03T03:30:18;96263.38;;;2.13;90.68
11621;BME280;5866;49.094;11.900;2023-03-03T03:32:47;96268.88;;;1.85;91.34
11621;BME280;5866;49.094;11.900;2023-03-03T03:35:16;96269.34;;;1.54;93.91
11621;BME280;5866;49.094;11.900;2023-03-03T03:37:44;96263.09;;;1.44;94.62
11621;BME280;5866;49.094;11.900;2023-03-03T03:40:12;96259.47;;;1.83;93.27
11621;BME280;5866;49.094;11.900;2023-03-03T03:42:39;96257.97;;;1.55;93.33
11621;BME280;5866;49.094;11.900;2023-03-03T03:45:07;96253.00;;;2.35;88.35
11621;BME280;5866;49.094;11.900;2023-03-03T03:47:35;96252.66;;;2.16;86.33
11621;BME280;5866;49.094;11.900;2023-03-03T03:50:03;96263.44;;;1.88;89.58
11621;BME280;5866;49.094;11.900;2023-03-03T03:52:32;96259.53;;;1.45;92.41
11621;BME280;5866;49.094;11.900;2023-03-03T03:55:00;96261.13;;;1.22;96.19
11621;BME280;5866;49.094;11.900;2023-03-03T03:57:27;96264.25;;;1.15;97.69
11621;BME280;5866;49.094;11.900;2023-03-03T03:59:55;96258.91;;;1.04;98.78
11621;BME280;5866;49.094;11.900;2023-03-03T04:02:23;96269.47;;;1.02;99.96
11621;BME280;5866;49.094;11.900;2023-03-03T04:04:50;96272.06;;;0.90;100.00
11621;BME280;5866;49.094;11.900;2023-03-03T04:07:18;96268.94;;;0.97;100.00
11621;BME280;5866;49.094;11.900;2023-03-03T04:09:47;96282.75;;;1.12;98.62
11621;BME280;5866;49.094;11.900;2023-03-03T04:12:14;96276.06;;;1.33;96.17
11621;BME280;5866;49.094;11.900;2023-03-03T04:14:42;96273.13;;;1.00;97.79
11621;BME280;5866;49.094;11.900;2023-03-03T04:17:14;96275.31;;;1.06;98.67
11621;BME280;5866;49.094;11.900;2023-03-03T04:19:42;96270.41;;;1.39;95.58
11621;BME280;5866;49.094;11.900;2023-03-03T04:22:10;96275.53;;;1.40;93.87
11621;BME280;5866;49.094;11.900;2023-03-03T04:24:37;96281.78;;;1.76;91.14
11621;BME280;5866;49.094;11.900;2023-03-03T04:27:06;96278.34;;;1.63;89.70
11621;BME280;5866;49.094;11.900;2023-03-03T04:29:35;96269.78;;;1.48;91.15
11621;BME280;5866;49.094;11.900;2023-03-03T04:32:02;96270.94;;;1.31;93.12
11621;BME280;5866;49.094;11.900;2023-03-03T04:34:30;96273.56;;;1.19;93.81
11621;BME280;5866;49.094;11.900;2023-03-03T04:36:57;96275.03;;;1.23;94.16
11621;BME280;5866;49.094;11.900;2023-03-03T04:39:25;96276.03;;;0.95;95.76
11621;BME280;5866;49.094;11.900;2023-03-03T04:41:52;96276.84;;;0.70;98.69
11621;BME280;5866;49.094;11.900;2023-03-03T04:44:21;96282.50;;;0.77;99.43
11621;BME280;5866;49.094;11.900;2023-03-03T04:46:49;96284.81;;;0.94;98.67
11621;BME280;5866;49.094;11.900;2023-03-03T04:49:16;96277.63;;;0.98;97.37
11621;BME280;5866;49.094;11.900;2023-03-03T04:51:44;96277.88;;;0.68;98.85
11621;BME280;5866;49.094;11.900;2023-03-03T04:54:11;96280.53;;;0.41;100.00
11621;BME280;5866;49.094;11.900;2023-03-03T04:56:39;96292.28;;;0.34;100.00
11621;BME280;5866;49.094;11.900;2023-03-03T04:59:06;96293.72;;;0.52;100.00
11621;BME280;5866;49.094;11.900;2023-03-03T05:01:35;96297.28;;;0.64;100.00
11621;BME280;5866;49.094;11.900;2023-03-03T05:04:03;96290.81;;;0.69;100.00
11621;BME280;5866;49.094;11.900;2023-03-03T05:06:30;96296.31;;;0.92;98.42
11621;BME280;5866;49.094;11.900;2023-03-03T05:08:58;96287.97;;;1.37;93.79
11621;BME280;5866;49.094;11.900;2023-03-03T05:11:25;96292.56;;;1.71;91.02
11621;BME280;5866;49.094;11.900;2023-03-03T05:13:53;96291.66;;;1.96;87.21
11621;BME280;5866;49.094;11.900;2023-03-03T05:16:20;96296.06;;;1.83;87.27
11621;BME280;5866;49.094;11.900;2023-03-03T05:18:49;96298.53;;;1.35;90.28
11621;BME280;5866;49.094;11.900;2023-03-03T05:21:16;96297.69;;;1.35;91.77
11621;BME280;5866;49.094;11.900;2023-03-03T05:23:44;96300.72;;;1.29;91.93
11621;BME280;5866;49.094;11.900;2023-03-03T05:26:11;96302.41;;;1.17;94.40
11621;BME280;5866;49.094;11.900;2023-03-03T05:28:39;96309.91;;;1.22;93.88
11621;BME280;5866;49.094;11.900;2023-03-03T05:31:06;96300.31;;;1.35;92.52
11621;BME280;5866;49.094;11.900;2023-03-03T05:33:34;96314.94;;;1.12;94.43
11621;BME280;5866;49.094;11.900;2023-03-03T05:36:03;96316.53;;;0.88;96.50
11621;BME280;5866;49.094;11.900;2023-03-03T05:38:31;96309.47;;;1.03;95.83
11621;BME280;5866;49.094;11.900;2023-03-03T05:40:58;96313.66;;;1.18;93.73
11621;BME280;5866;49.094;11.900;2023-03-03T05:43:26;96307.22;;;1.36;93.85
11621;BME280;5866;49.094;11.900;2023-03-03T05:45:54;96303.88;;;1.21;93.05
11621;BME280;5866;49.094;11.900;2023-03-03T05:48:23;96309.78;;;1.86;89.34
11621;BME280;5866;49.094;11.900;2023-03-03T05:50:50;96309.09;;;1.72;89.04
11621;BME280;5866;49.094;11.900;2023-03-03T05:53:19;96312.81;;;1.80;89.03
11621;BME280;5866;49.094;11.900;2023-03-03T05:55:46;96317.69;;;2.10;86.57
11621;BME280;5866;49.094;11.900;2023-03-03T05:58:14;96316.09;;;2.91;79.96
11621;BME280;5866;49.094;11.900;2023-03-03T06:00:42;96310.72;;;3.16;75.81
11621;BME280;5866;49.094;11.900;2023-03-03T06:03:09;96323.72;;;2.94;76.84
11621;BME280;5866;49.094;11.900;2023-03-03T06:05:37;96331.25;;;2.75;76.25
11621;BME280;5866;49.094;11.900;2023-03-03T06:08:04;96327.38;;;2.80;76.83
11621;BME280;5866;49.094;11.900;2023-03-03T06:10:33;96316.88;;;3.15;75.62
11621;BME280;5866;49.094;11.900;2023-03-03T06:13:01;96326.22;;;3.30;73.61
11621;BME280;5866;49.094;11.900;2023-03-03T06:15:28;96324.34;;;3.54;72.07
11621;BME280;5866;49.094;11.900;2023-03-03T06:17:56;96322.69;;;3.53;71.34
11621;BME280;5866;49.094;11.900;2023-03-03T06:20:23;96332.41;;;3.18;73.07
11621;BME280;5866;49.094;11.900;2023-03-03T06:22:51;96346.19;;;2.38;78.34
11621;BME280;5866;49.094;11.900;2023-03-03T06:25:19;96347.56;;;1.57;86.95
11621;BME280;5866;49.094;11.900;2023-03-03T06:27:48;96345.22;;;1.15;94.98
11621;BME280;5866;49.094;11.900;2023-03-03T06:30:15;96344.72;;;1.22;98.40
11621;BME280;5866;49.094;11.900;2023-03-03T06:32:44;96341.38;;;1.33;97.28
11621;BME280;5866;49.094;11.900;2023-03-03T06:35:12;96348.81;;;1.39;96.71
11621;BME280;5866;49.094;11.900;2023-03-03T06:37:39;96351.00;;;1.57;95.16
11621;BME280;5866;49.094;11.900;2023-03-03T06:40:08;96359.75;;;1.06;98.64
11621;BME280;5866;49.094;11.900;2023-03-03T06:42:36;96354.81;;;1.02;100.00
11621;BME280;5866;49.094;11.900;2023-03-03T06:45:05;96356.94;;;1.22;100.00
11621;BME280;5866;49.094;11.900;2023-03-03T06:47:33;96369.94;;;1.36;99.55
11621;BME280;5866;49.094;11.900;2023-03-03T06:50:00;96367.81;;;1.28;98.94
11621;BME280;5866;49.094;11.900;2023-03-03T06:52:28;96370.97;;;1.46;97.31
11621;BME280;5866;49.094;11.900;2023-03-03T06:54:58;96366.78;;;1.43;95.86
11621;BME280;5866;49.094;11.900;2023-03-03T06:57:29;96366.38;;;1.62;93.51
11621;BME280;5866;49.094;11.900;2023-03-03T07:00:01;96369.31;;;1.70;91.44
11621;BME280;5866;49.094;11.900;2023-03-03T07:02:30;96372.72;;;2.08;88.71
11621;BME280;5866;49.094;11.900;2023-03-03T07:04:58;96374.66;;;2.42;83.16
11621;BME280;5866;49.094;11.900;2023-03-03T07:07:25;96377.91;;;2.33;83.17
11621;BME280;5866;49.094;11.900;2023-03-03T07:09:54;96378.88;;;2.32;84.38
11621;BME280;5866;49.094;11.900;2023-03-03T07:12:25;96379.50;;;2.23;84.35
11621;BME280;5866;49.094;11.900;2023-03-03T07:14:57;96385.34;;;2.27;84.29
11621;BME280;5866;49.094;11.900;2023-03-03T07:17:30;96382.63;;;2.28;85.60
11621;BME280;5866;49.094;11.900;2023-03-03T07:19:58;96384.94;;;2.20;86.39
11621;BME280;5866;49.094;11.900;2023-03-03T07:22:26;96388.66;;;2.41;84.54
11621;BME280;5866;49.094;11.900;2023-03-03T07:24:58;96383.19;;;2.57;81.80
11621;BME280;5866;49.094;11.900;2023-03-03T07:27:28;96388.44;;;2.81;79.42
11621;BME280;5866;49.094;11.900;2023-03-03T07:30:13;96381.94;;;3.21;77.35
11621;BME280;5866;49.094;11.900;2023-03-03T07:32:45;96384.13;;;4.61;68.66
11621;BME280;5866;49.094;11.900;2023-03-03T07:35:27;96372.38;;;6.22;60.54
11621;BME280;5866;49.094;11.900;2023-03-03T07:37:56;96378.81;;;6.39;57.76
11621;BME280;5866;49.094;11.900;2023-03-03T07:40:33;96381.53;;;7.07;57.50
11621;BME280;5866;49.094;11.900;2023-03-03T07:43:20;96371.13;;;7.54;54.95
11621;BME280;5866;49.094;11.900;2023-03-03T07:45:57;96380.44;;;7.48;54.86
11621;BME280;5866;49.094;11.900;2023-03-03T07:48:34;96385.25;;;7.14;53.69
11621;BME280;5866;49.094;11.900;2023-03-03T07:51:04;96383.31;;;7.07;54.46
11621;BME280;5866;49.094;11.900;2023-03-03T07:53:38;96399.16;;;6.27;55.62
11621;BME280;5866;49.094;11.900;2023-03-03T07:56:14;96407.13;;;6.07;56.21
11621;BME280;5866;49.094;11.900;2023-03-03T07:58:43;96412.25;;;5.88;57.31
11621;BME280;5866;49.094;11.900;2023-03-03T08:01:31;96401.41;;;5.49;58.92
11621;BME280;5866;49.094;11.900;2023-03-03T08:04:16;96411.00;;;5.71;57.48
11621;BME280;5866;49.094;11.900;2023-03-03T08:06:47;96398.41;;;5.54;57.51
11621;BME280;5866;49.094;11.900;2023-03-03T08:09:37;96406.44;;;4.78;60.07
11621;BME280;5866;49.094;11.900;2023-03-03T08:15:20;96401.03;;;5.75;59.11
11621;BME280;5866;49.094;11.900;2023-03-03T08:17:49;96398.66;;;6.43;57.05
11621;BME280;5866;49.094;11.900;2023-03-03T08:20:41;96400.50;;;8.16;52.54
11621;BME280;5866;49.094;11.900;2023-03-03T08:23:11;96404.81;;;8.63;51.23
11621;BME280;5866;49.094;11.900;2023-03-03T08:25:39;96403.44;;;7.94;52.55
11621;BME280;5866;49.094;11.900;2023-03-03T08:28:08;96408.47;;;8.53;50.96
11621;BME280;5866;49.094;11.900;2023-03-03T08:30:35;96405.47;;;8.38;51.14
11621;BME280;5866;49.094;11.900;2023-03-03T08:33:03;96409.72;;;8.58;50.82
11621;BME280;5866;49.094;11.900;2023-03-03T08:35:30;96413.44;;;8.65;50.42
11621;BME280;5866;49.094;11.900;2023-03-03T08:37:59;96416.34;;;8.35;51.43
11621;BME280;5866;49.094;11.900;2023-03-03T08:40:27;96412.91;;;8.06;52.15
11621;BME280;5866;49.094;11.900;2023-03-03T08:42:55;96416.56;;;9.06;50.38
11621;BME280;5866;49.094;11.900;2023-03-03T08:45:24;96417.38;;;9.86;48.72
11621;BME280;5866;49.094;11.900;2023-03-03T08:47:52;96419.03;;;9.87;48.55
11621;BME280;5866;49.094;11.900;2023-03-03T08:50:19;96420.66;;;10.75;47.40
11621;BME280;5866;49.094;11.900;2023-03-03T08:52:47;96420.78;;;10.39;46.78
11621;BME280;5866;49.094;11.900;2023-03-03T08:55:17;96435.03;;;8.88;49.17
11621;BME280;5866;49.094;11.900;2023-03-03T08:57:44;96432.41;;;8.51;50.22
11621;BME280;5866;49.094;11.900;2023-03-03T09:00:14;96433.19;;;8.61;50.11
11621;BME280;5866;49.094;11.900;2023-03-03T09:02:43;96428.50;;;8.55;49.52
11621;BME280;5866;49.094;11.900;2023-03-03T09:05:11;96433.88;;;8.63;50.32
11621;BME280;5866;49.094;11.900;2023-03-03T09:07:39;96440.97;;;8.26;50.35
11621;BME280;5866;49.094;11.900;2023-03-03T09:10:10;96434.16;;;8.04;50.27
11621;BME280;5866;49.094;11.900;2023-03-03T09:12:41;96439.34;;;7.87;51.35
11621;BME280;5866;49.094;11.900;2023-03-03T09:15:17;96444.72;;;8.33;50.62
11621;BME280;5866;49.094;11.900;2023-03-03T09:17:46;96443.94;;;8.60;50.43
11621;BME280;5866;49.094;11.900;2023-03-03T09:20:34;96453.22;;;8.27;50.83
11621;BME280;5866;49.094;11.900;2023-03-03T09:23:28;96448.16;;;8.43;50.57
11621;BME280;5866;49.094;11.900;2023-03-03T09:25:57;96448.06;;;7.40;50.83
11621;BME280;5866;49.094;11.900;2023-03-03T09:28:28;96454.63;;;6.86;53.85
11621;BME280;5866;49.094;11.900;2023-03-03T09:30:59;96456.06;;;7.09;53.54
11621;BME280;5866;49.094;11.900;2023-03-03T09:33:40;96449.69;;;8.46;50.73
11621;BME280;5866;49.094;11.900;2023-03-03T09:36:20;96450.81;;;8.43;49.54
11621;BME280;5866;49.094;11.900;2023-03-03T09:38:49;96446.78;;;8.76;49.59
11621;BME280;5866;49.094;11.900;2023-03-03T09:41:45;96448.38;;;9.41;47.69
11621;BME280;5866;49.094;11.900;2023-03-03T09:44:29;96449.00;;;8.80;48.60
11621;BME280;5866;49.094;11.900;2023-03-03T09:47:12;96449.84;;;8.81;49.47
11621;BME280;5866;49.094;11.900;2023-03-03T09:49:48;96435.16;;;8.69;49.08
11621;BME280;5866;49.094;11.900;2023-03-03T09:52:32;96447.41;;;9.42;48.76
11621;BME280;5866;49.094;11.900;2023-03-03T09:55:12;96439.25;;;9.53;48.06
11621;BME280;5866;49.094;11.900;2023-03-03T09:57:56;96447.53;;;9.23;48.47
11621;BME280;5866;49.094;11.900;2023-03-03T10:00:44;96438.81;;;9.75;47.43
11621;BME280;5866;49.094;11.900;2023-03-03T10:03:44;96449.78;;;10.15;47.05
11621;BME280;5866;49.094;11.900;2023-03-03T10:06:24;96444.72;;;10.81;46.02
11621;BME280;5866;49.094;11.900;2023-03-03T10:09:04;96444.97;;;10.96;45.45
11621;BME280;5866;49.094;11.900;2023-03-03T10:11:39;96440.84;;;11.35;44.45
11621;BME280;5866;49.094;11.900;2023-03-03T10:14:30;96451.00;;;10.72;45.92
11621;BME280;5866;49.094;11.900;2023-03-03T10:17:20;96450.47;;;11.44;44.56
11621;BME280;5866;49.094;11.900;2023-03-03T10:20:01;96453.06;;;11.70;44.21
11621;BME280;5866;49.094;11.900;2023-03-03T10:22:35;96455.72;;;10.35;46.93
11621;BME280;5866;49.094;11.900;2023-03-03T10:25:27;96462.28;;;10.74;46.34
11621;BME280;5866;49.094;11.900;2023-03-03T10:28:18;96461.09;;;10.08;47.91
11621;BME280;5866;49.094;11.900;2023-03-03T10:30:54;96462.44;;;11.48;45.21
11621;BME280;5866;49.094;11.900;2023-03-03T10:33:43;96458.59;;;12.33;44.11
11621;BME280;5866;49.094;11.900;2023-03-03T10:36:24;96458.56;;;12.65;43.67
11621;BME280;5866;49.094;11.900;2023-03-03T10:39:09;96456.56;;;13.61;41.46
11621;BME280;5866;49.094;11.900;2023-03-03T10:41:56;96451.75;;;13.87;40.85
11621;BME280;5866;49.094;11.900;2023-03-03T10:44:37;96449.66;;;12.89;42.79
11621;BME280;5866;49.094;11.900;2023-03-03T10:47:25;96439.56;;;13.92;41.85
11621;BME280;5866;49.094;11.900;2023-03-03T10:50:04;96444.41;;;15.59;39.57
11621;BME280;5866;49.094;11.900;2023-03-03T10:52:38;96446.28;;;12.32;43.93
11621;BME280;5866;49.094;11.900;2023-03-03T10:55:22;96455.53;;;11.71;45.98
11621;BME280;5866;49.094;11.900;2023-03-03T10:58:02;96451.91;;;12.45;44.19
11621;BME280;5866;49.094;11.900;2023-03-03T11:00:39;96444.59;;;13.57;42.81
11621;BME280;5866;49.094;11.900;2023-03-03T11:03:27;96442.16;;;14.60;40.86
11621;BME280;5866;49.094;11.900;2023-03-03T11:06:01;96433.66;;;16.79;36.85
11621;BME280;5866;49.094;11.900;2023-03-03T11:08:35;96427.91;;;18.17;35.16
11621;BME280;5866;49.094;11.900;2023-03-03T11:11:15;96432.06;;;19.18;33.81
11621;BME280;5866;49.094;11.900;2023-03-03T11:13:47;96430.97;;;17.07;35.16
11621;BME280;5866;49.094;11.900;2023-03-03T11:16:28;96433.28;;;15.55;37.46
11621;BME280;5866;49.094;11.900;2023-03-03T11:19:09;96442.88;;;15.21;37.71
11621;BME280;5866;49.094;11.900;2023-03-03T11:21:45;96446.25;;;13.88;41.19
11621;BME280;5866;49.094;11.900;2023-03-03T11:24:25;96439.44;;;13.86;41.45
11621;BME280;5866;49.094;11.900;2023-03-03T11:27:10;96433.19;;;14.90;39.82
11621;BME280;5866;49.094;11.900;2023-03-03T11:29:51;96429.34;;;15.07;38.84
11621;BME280;5866;49.094;11.900;2023-03-03T11:32:32;96428.78;;;14.46;39.97
11621;BME280;5866;49.094;11.900;2023-03-03T11:35:16;96429.19;;;13.44;41.76
11621;BME280;5866;49.094;11.900;2023-03-03T11:37:56;96431.00;;;13.43;41.40
11621;BME280;5866;49.094;11.900;2023-03-03T11:40:31;96423.41;;;13.32;42.60
11621;BME280;5866;49.094;11.900;2023-03-03T11:43:06;96421.66;;;14.01;41.18
11621;BME280;5866;49.094;11.900;2023-03-03T11:45:39;96418.88;;;14.54;40.48
11621;BME280;5866;49.094;11.900;2023-03-03T11:48:15;96419.09;;;13.31;41.57
11621;BME280;5866;49.094;11.900;2023-03-03T11:50:51;96423.63;;;13.53;42.07
11621;BME280;5866;49.094;11.900;2023-03-03T11:53:31;96416.16;;;13.49;41.62
11621;BME280;5866;49.094;11.900;2023-03-03T11:56:06;96410.72;;;14.56;40.27
11621;BME280;5866;49.094;11.900;2023-03-03T11:58:44;96421.22;;;12.89;43.21
11621;BME280;5866;49.094;11.900;2023-03-03T12:01:18;96417.47;;;13.53;42.76
11621;BME280;5866;49.094;11.900;2023-03-03T12:03:52;96411.34;;;12.43;44.97
11621;BME280;5866;49.094;11.900;2023-03-03T12:06:27;96407.19;;;12.40;44.77
11621;BME280;5866;49.094;11.900;2023-03-03T12:09:12;96411.44;;;14.64;41.33
11621;BME280;5866;49.094;11.900;2023-03-03T12:11:48;96407.38;;;16.19;38.80
11621;BME280;5866;49.094;11.900;2023-03-03T12:14:29;96397.75;;;18.02;35.91
11621;BME280;5866;49.094;11.900;2023-03-03T12:17:02;96396.13;;;16.03;38.12
11621;BME280;5866;49.094;11.900;2023-03-03T12:19:34;96394.84;;;17.91;35.35
11621;BME280;5866;49.094;11.900;2023-03-03T12:22:18;96397.22;;;17.66;35.74
11621;BME280;5866;49.094;11.900;2023-03-03T12:25:20;96392.72;;;17.73;34.99
11621;BME280;5866;49.094;11.900;2023-03-03T12:27:53;96395.16;;;17.62;35.03
11621;BME280;5866;49.094;11.900;2023-03-03T12:30:41;96382.50;;;18.42;34.16
11621;BME280;5866;49.094;11.900;2023-03-03T12:33:18;96385.00;;;18.50;34.86
11621;BME280;5866;49.094;11.900;2023-03-03T12:35:57;96381.03;;;18.40;34.04
11621;BME280;5866;49.094;11.900;2023-03-03T12:38:34;96377.72;;;18.11;34.48
11621;BME280;5866;49.094;11.900;2023-03-03T12:41:11;96374.22;;;18.17;34.78
11621;BME280;5866;49.094;11.900;2023-03-03T12:43:55;96373.59;;;18.02;34.60
11621;BME280;5866;49.094;11.900;2023-03-03T12:46:34;96360.22;;;19.32;33.29
11621;BME280;5866;49.094;11.900;2023-03-03T12:49:05;96359.63;;;19.23;33.40
11621;BME280;5866;49.094;11.900;2023-03-03T12:51:40;96356.03;;;20.18;32.92
11621;BME280;5866;49.094;11.900;2023-03-03T12:54:18;96358.00;;;20.60;31.37
11621;BME280;5866;49.094;11.900;2023-03-03T12:56:53;96360.84;;;19.40;32.43
11621;BME280;5866;49.094;11.900;2023-03-03T12:59:30;96356.44;;;18.75;34.41
11621;BME280;5866;49.094;11.900;2023-03-03T13:02:24;96357.72;;;18.47;33.86
11621;BME280;5866;49.094;11.900;2023-03-03T13:05:03;96362.03;;;18.41;34.51
11621;BME280;5866;49.094;11.900;2023-03-03T13:07:38;96350.03;;;18.04;34.66
11621;BME280;5866;49.094;11.900;2023-03-03T13:10:15;96356.38;;;17.64;34.68
11621;BME280;5866;49.094;11.900;2023-03-03T13:12:50;96356.78;;;16.24;37.08
11621;BME280;5866;49.094;11.900;2023-03-03T13:15:22;96351.63;;;17.66;35.55
11621;BME280;5866;49.094;11.900;2023-03-03T13:18:16;96353.50;;;19.03;33.76
11621;BME280;5866;49.094;11.900;2023-03-03T13:20:49;96353.16;;;19.81;32.80
11621;BME280;5866;49.094;11.900;2023-03-03T13:23:28;96351.03;;;20.95;31.71
11621;BME280;5866;49.094;11.900;2023-03-03T13:26:02;96346.44;;;19.02;33.40
11621;BME280;5866;49.094;11.900;2023-03-03T13:28:39;96348.94;;;17.66;35.29
11621;BME280;5866;49.094;11.900;2023-03-03T13:31:11;96356.19;;;16.78;36.30
11621;BME280;5866;49.094;11.900;2023-03-03T13:33:43;96357.25;;;16.83;36.10
11621;BME280;5866;49.094;11.900;2023-03-03T13:36:17;96360.16;;;16.33;37.73
11621;BME280;5866;49.094;11.900;2023-03-03T13:38:47;96353.78;;;17.43;35.64
11621;BME280;5866;49.094;11.900;2023-03-03T13:41:21;96350.69;;;18.46;34.48